Delray Beach, FL

4:20 AM EDT on October 23, 2014 (GMT -0400)
Palm Beach International | Change Station
CLOSE
Current Station
Airport
Location: West Palm Beach,
Elevation: 20 ft
Nearby Weather Stations

Elev 20 ft 26.68 °N, 80.10 °W | Updated 27 minutes ago

Rain
Rain
78 °F
Feels Like 78 °F
N
0
Wind Variable Wind from North

Today
High -- | Low -- °F
--% Chance of Precip.
Yesterday
High -- | Low -- °F
Precip. -- in
7:23 AM 6:44 PM
Waning Crescent, 0% visible
Pressure 29.89 in
Visibility 7.0 miles
Clouds Mostly Cloudy 3600 ft
Mostly Cloudy 5500 ft
Mostly Cloudy 19000 ft
Dew Point 68 °F
Humidity 71%
Rainfall 0.00 in
Snow Depth Not available.
UV 0 out of 12
Pollen 3.40 out of 12
Air Quality Not available.
Flu Activity Local Activity
METAR KPBI 230753Z 00000KT 7SM -RA BKN036CB BKN055 BKN190 26/20 A2989 RMK AO2 RAB50 SLP122 CB OHD-SE-SW MOV NE P0000 T02560200 $

More Conditions Fewer Conditions

Pressure 29.89 in
Visibility 7.0 miles
Clouds Mostly Cloudy 3600 ft
Mostly Cloudy 5500 ft
Mostly Cloudy 19000 ft
Dew Point 68 °F
Humidity 71%
Rainfall 0.00 in
Snow Depth Not available.
UV 0 out of 12
Pollen 3.40 out of 12
Air Quality Not available.
Flu Activity Local Activity
METAR KPBI 230753Z 00000KT 7SM -RA BKN036CB BKN055 BKN190 26/20 A2989 RMK AO2 RAB50 SLP122 CB OHD-SE-SW MOV NE P0000 T02560200 $

More Conditions Fewer Conditions

Nowcast | as of 2:36 am EDT on October 23, 2014

Scattered showers and isolated thunderstorms will continue to impact the area through the morning hours. These showers and storms will have little to no movement this morning. While most of the rainfall will be light to moderate, there is a potential for locally heavy rainfall, especially in the coastal and Metro areas of Miami-Dade, Broward, and West Palm Beach counties.

×

10-Day Weather Forecast

Almanac

Astronomy

Oct. 23, 2014 Rise Set
Actual Time 7:23 AM EDT 6:44 PM EDT
Civil Twilight 7:00 AM EDT 7:08 PM EDT
Nautical Twilight 6:33 AM EDT 7:35 PM EDT
Astronomical Twilight 6:06 AM EDT 8:02 PM EDT
Moon 7:04 AM EDT 6:45 PM EDT
Length of Visible Light 12h 07m
Length of Day
11h 20m
Tomorrow will be 1m 27s shorter.
Waning Crescent, 0% of the Moon is Illuminated
Today
Waning Crescent
Oct 23
New
Oct 30
First Quarter
Nov 6
Full
Nov 14
Last Quarter

Today's Extremes

State Highs State Lows

Community

WunderPhotos

Upload Photos

1,764,195 photos uploaded!

Nearby

Air Quality

  Air Quality AQ Index Pollutant
Yesterday Good
OZONE
Yesterday Good
PM2.5
Thursday Good
OZONE
Thursday Good
PM2.5
Friday Good
OZONE
Friday Good
PM2.5

Snow Depth

Station Depth Elevation
No new snow has been reported.

Earthquake Activity

City Distance Mag. Time & Date
No recent earthquake activity has been reported nearby.
Minimum magnitude displayed is 2.5.

Coastal Water Temperatures

Place Temperature
Lake Worth, FL 82.0 °F
Virginia Key, FL 81.0 °F

Nearby Weather Stations